sensor_id;sensor_type;location;lat;lon;timestamp;pressure;altitude;pressure_sealevel;temperature;humidity
21838;BME280;11081;45.946;6.140;2022-10-17T00:00:36;95745.28;;;16.55;79.92
21838;BME280;11081;45.946;6.140;2022-10-17T00:03:06;95748.69;;;16.56;79.79
21838;BME280;11081;45.946;6.140;2022-10-17T00:05:38;95757.03;;;16.48;80.29
21838;BME280;11081;45.946;6.140;2022-10-17T00:08:07;95760.63;;;16.41;80.75
21838;BME280;11081;45.946;6.140;2022-10-17T00:10:35;95760.06;;;16.39;80.89
21838;BME280;11081;45.946;6.140;2022-10-17T00:13:04;95757.34;;;16.34;80.83
21838;BME280;11081;45.946;6.140;2022-10-17T00:15:32;95761.53;;;16.30;80.88
21838;BME280;11081;45.946;6.140;2022-10-17T00:18:00;95755.69;;;16.28;80.77
21838;BME280;11081;45.946;6.140;2022-10-17T00:20:30;95755.16;;;16.26;80.80
21838;BME280;11081;45.946;6.140;2022-10-17T00:22:58;95762.00;;;16.27;80.55
21838;BME280;11081;45.946;6.140;2022-10-17T00:25:26;95766.78;;;16.30;80.19
21838;BME280;11081;45.946;6.140;2022-10-17T00:27:54;95766.78;;;16.30;80.17
21838;BME280;11081;45.946;6.140;2022-10-17T00:30:22;95758.34;;;16.28;79.85
21838;BME280;11081;45.946;6.140;2022-10-17T00:32:50;95781.00;;;16.29;79.73
21838;BME280;11081;45.946;6.140;2022-10-17T00:35:18;95781.00;;;16.29;79.76
21838;BME280;11081;45.946;6.140;2022-10-17T00:37:48;95775.41;;;16.26;79.90
21838;BME280;11081;45.946;6.140;2022-10-17T00:40:17;95780.81;;;16.19;80.30
21838;BME280;11081;45.946;6.140;2022-10-17T00:42:46;95782.09;;;16.16;80.50
21838;BME280;11081;45.946;6.140;2022-10-17T00:45:21;95782.91;;;16.17;80.30
21838;BME280;11081;45.946;6.140;2022-10-17T00:47:53;95778.69;;;16.16;80.71
21838;BME280;11081;45.946;6.140;2022-10-17T00:50:23;95783.16;;;16.15;80.84
21838;BME280;11081;45.946;6.140;2022-10-17T00:52:53;95775.72;;;16.12;80.30
21838;BME280;11081;45.946;6.140;2022-10-17T00:55:27;95777.56;;;16.12;80.61
21838;BME280;11081;45.946;6.140;2022-10-17T00:57:59;95777.50;;;16.07;80.76
21838;BME280;11081;45.946;6.140;2022-10-17T01:00:29;95779.09;;;16.08;80.84
21838;BME280;11081;45.946;6.140;2022-10-17T01:02:58;95774.94;;;16.12;80.50
21838;BME280;11081;45.946;6.140;2022-10-17T01:05:26;95777.63;;;16.17;80.29
21838;BME280;11081;45.946;6.140;2022-10-17T01:07:55;95778.75;;;16.21;79.92
21838;BME280;11081;45.946;6.140;2022-10-17T01:10:29;95778.75;;;16.21;80.17
21838;BME280;11081;45.946;6.140;2022-10-17T01:13:06;95778.69;;;16.16;80.13
21838;BME280;11081;45.946;6.140;2022-10-17T01:15:44;95784.34;;;16.08;80.70
21838;BME280;11081;45.946;6.140;2022-10-17T01:18:25;95787.22;;;16.06;80.99
21838;BME280;11081;45.946;6.140;2022-10-17T01:21:24;95794.78;;;16.03;81.16
21838;BME280;11081;45.946;6.140;2022-10-17T01:24:46;95785.94;;;15.92;81.68
21838;BME280;11081;45.946;6.140;2022-10-17T01:27:36;95785.63;;;15.89;81.67
21838;BME280;11081;45.946;6.140;2022-10-17T01:33:44;95794.00;;;15.85;81.64
21838;BME280;11081;45.946;6.140;2022-10-17T01:36:21;95791.00;;;15.82;81.47
21838;BME280;11081;45.946;6.140;2022-10-17T01:38:56;95795.47;;;15.81;81.66
21838;BME280;11081;45.946;6.140;2022-10-17T01:41:34;95800.41;;;15.78;81.75
21838;BME280;11081;45.946;6.140;2022-10-17T01:44:08;95795.94;;;15.78;81.80
21838;BME280;11081;45.946;6.140;2022-10-17T01:46:40;95801.78;;;15.80;81.72
21838;BME280;11081;45.946;6.140;2022-10-17T01:49:13;95799.16;;;15.80;81.76
21838;BME280;11081;45.946;6.140;2022-10-17T01:51:46;95797.56;;;15.79;81.50
21838;BME280;11081;45.946;6.140;2022-10-17T01:54:20;95799.16;;;15.80;81.19
21838;BME280;11081;45.946;6.140;2022-10-17T01:56:54;95800.75;;;15.81;81.22
21838;BME280;11081;45.946;6.140;2022-10-17T01:59:27;95790.69;;;15.78;81.34
21838;BME280;11081;45.946;6.140;2022-10-17T02:01:57;95784.31;;;15.74;81.39
21838;BME280;11081;45.946;6.140;2022-10-17T02:04:27;95795.41;;;15.76;81.28
21838;BME280;11081;45.946;6.140;2022-10-17T02:06:56;95796.66;;;15.74;81.23
21838;BME280;11081;45.946;6.140;2022-10-17T02:09:25;95796.34;;;15.70;81.75
21838;BME280;11081;45.946;6.140;2022-10-17T02:12:06;95792.44;;;15.73;81.66
21838;BME280;11081;45.946;6.140;2022-10-17T02:14:48;95799.78;;;15.71;81.64
21838;BME280;11081;45.946;6.140;2022-10-17T02:17:27;95802.66;;;15.69;81.64
21838;BME280;11081;45.946;6.140;2022-10-17T02:20:07;95802.16;;;15.72;81.52
21838;BME280;11081;45.946;6.140;2022-10-17T02:22:43;95807.91;;;15.69;81.28
21838;BME280;11081;45.946;6.140;2022-10-17T02:25:21;95809.28;;;15.72;81.55
21838;BME280;11081;45.946;6.140;2022-10-17T02:27:57;95812.13;;;15.70;81.63
21838;BME280;11081;45.946;6.140;2022-10-17T02:30:32;95814.78;;;15.70;81.44
21838;BME280;11081;45.946;6.140;2022-10-17T02:33:06;95803.59;;;15.63;82.04
21838;BME280;11081;45.946;6.140;2022-10-17T02:35:42;95809.31;;;15.60;82.13
21838;BME280;11081;45.946;6.140;2022-10-17T02:38:13;95808.72;;;15.58;81.86
21838;BME280;11081;45.946;6.140;2022-10-17T02:40:43;95812.53;;;15.62;81.50
21838;BME280;11081;45.946;6.140;2022-10-17T02:43:13;95814.56;;;15.60;81.38
21838;BME280;11081;45.946;6.140;2022-10-17T02:45:41;95823.50;;;15.59;81.85
21838;BME280;11081;45.946;6.140;2022-10-17T02:48:14;95834.03;;;15.59;82.12
21838;BME280;11081;45.946;6.140;2022-10-17T02:50:53;95822.81;;;15.52;82.18
21838;BME280;11081;45.946;6.140;2022-10-17T02:53:32;95831.28;;;15.54;82.11
21838;BME280;11081;45.946;6.140;2022-10-17T02:56:07;95816.28;;;15.54;81.61
21838;BME280;11081;45.946;6.140;2022-10-17T02:58:41;95824.28;;;15.60;81.54
21838;BME280;11081;45.946;6.140;2022-10-17T03:01:13;95830.38;;;15.60;81.74
21838;BME280;11081;45.946;6.140;2022-10-17T03:03:42;95823.50;;;15.59;81.65
21838;BME280;11081;45.946;6.140;2022-10-17T03:06:11;95824.97;;;15.55;81.45
21838;BME280;11081;45.946;6.140;2022-10-17T03:08:39;95829.69;;;15.53;81.54
21838;BME280;11081;45.946;6.140;2022-10-17T03:11:07;95822.81;;;15.52;81.64
21838;BME280;11081;45.946;6.140;2022-10-17T03:13:35;95812.06;;;15.53;81.81
21838;BME280;11081;45.946;6.140;2022-10-17T03:16:06;95819.16;;;15.53;81.85
21838;BME280;11081;45.946;6.140;2022-10-17T03:18:34;95820.19;;;15.52;81.85
21838;BME280;11081;45.946;6.140;2022-10-17T03:21:03;95821.22;;;15.51;81.56
21838;BME280;11081;45.946;6.140;2022-10-17T03:23:33;95814.38;;;15.50;81.90
21838;BME280;11081;45.946;6.140;2022-10-17T03:26:03;95817.56;;;15.52;81.85
21838;BME280;11081;45.946;6.140;2022-10-17T03:28:33;95815.00;;;15.57;81.20
21838;BME280;11081;45.946;6.140;2022-10-17T03:31:06;95814.56;;;15.60;81.08
21838;BME280;11081;45.946;6.140;2022-10-17T03:33:35;95811.72;;;15.62;80.92
21838;BME280;11081;45.946;6.140;2022-10-17T03:36:06;95820.28;;;15.57;81.00
21838;BME280;11081;45.946;6.140;2022-10-17T03:38:37;95814.16;;;15.40;82.09
21838;BME280;11081;45.946;6.140;2022-10-17T03:41:06;95821.50;;;15.38;81.86
21838;BME280;11081;45.946;6.140;2022-10-17T03:43:35;95827.44;;;15.45;81.32
21838;BME280;11081;45.946;6.140;2022-10-17T03:46:05;95823.66;;;15.41;81.58
21838;BME280;11081;45.946;6.140;2022-10-17T03:48:34;95822.91;;;15.29;81.33
21838;BME280;11081;45.946;6.140;2022-10-17T03:51:05;95827.84;;;15.13;82.06
21838;BME280;11081;45.946;6.140;2022-10-17T03:53:41;95827.75;;;15.08;82.59
21838;BME280;11081;45.946;6.140;2022-10-17T03:56:10;95828.41;;;15.15;82.43
21838;BME280;11081;45.946;6.140;2022-10-17T03:58:40;95834.78;;;15.19;82.41
21838;BME280;11081;45.946;6.140;2022-10-17T04:01:11;95833.88;;;15.25;81.80
21838;BME280;11081;45.946;6.140;2022-10-17T04:03:40;95839.16;;;15.25;81.92
21838;BME280;11081;45.946;6.140;2022-10-17T04:06:10;95837.56;;;15.24;82.08
21838;BME280;11081;45.946;6.140;2022-10-17T04:08:42;95834.34;;;15.22;81.65
21838;BME280;11081;45.946;6.140;2022-10-17T04:11:18;95832.75;;;15.21;81.77
21838;BME280;11081;45.946;6.140;2022-10-17T04:13:52;95836.75;;;15.24;81.83
21838;BME280;11081;45.946;6.140;2022-10-17T04:16:23;95848.97;;;15.18;82.10
21838;BME280;11081;45.946;6.140;2022-10-17T04:18:59;95850.59;;;14.96;83.06
21838;BME280;11081;45.946;6.140;2022-10-17T04:21:33;95851.78;;;15.00;83.09
21838;BME280;11081;45.946;6.140;2022-10-17T04:24:09;95849.72;;;15.02;83.42
21838;BME280;11081;45.946;6.140;2022-10-17T04:26:44;95845.25;;;15.03;83.18
21838;BME280;11081;45.946;6.140;2022-10-17T04:29:16;95849.72;;;15.02;82.90
21838;BME280;11081;45.946;6.140;2022-10-17T04:31:48;95858.63;;;15.01;83.10
21838;BME280;11081;45.946;6.140;2022-10-17T04:34:32;95858.50;;;14.96;83.06
21838;BME280;11081;45.946;6.140;2022-10-17T04:37:00;95872.22;;;14.98;82.51
21838;BME280;11081;45.946;6.140;2022-10-17T04:39:30;95867.88;;;15.04;82.31
21838;BME280;11081;45.946;6.140;2022-10-17T04:41:58;95874.84;;;14.98;82.58
21838;BME280;11081;45.946;6.140;2022-10-17T04:44:26;95873.69;;;14.94;83.04
21838;BME280;11081;45.946;6.140;2022-10-17T04:46:57;95881.59;;;14.94;82.62
21838;BME280;11081;45.946;6.140;2022-10-17T04:49:25;95882.06;;;15.03;82.99
21838;BME280;11081;45.946;6.140;2022-10-17T04:51:59;95879.91;;;15.00;82.97
21838;BME280;11081;45.946;6.140;2022-10-17T04:54:40;95884.91;;;15.01;82.93
21838;BME280;11081;45.946;6.140;2022-10-17T04:57:09;95880.09;;;14.98;83.35
21838;BME280;11081;45.946;6.140;2022-10-17T04:59:39;95882.16;;;14.96;83.42
21838;BME280;11081;45.946;6.140;2022-10-17T05:02:19;95894.84;;;14.99;83.57
21838;BME280;11081;45.946;6.140;2022-10-17T05:04:47;95884.31;;;14.99;83.06
21838;BME280;11081;45.946;6.140;2022-10-17T05:07:16;95892.22;;;14.99;83.21
21838;BME280;11081;45.946;6.140;2022-10-17T05:09:45;95886.75;;;15.01;83.44
21838;BME280;11081;45.946;6.140;2022-10-17T05:12:15;95886.53;;;15.02;83.69
21838;BME280;11081;45.946;6.140;2022-10-17T05:14:44;95887.53;;;15.01;82.99
21838;BME280;11081;45.946;6.140;2022-10-17T05:17:13;95891.78;;;15.02;83.25
21838;BME280;11081;45.946;6.140;2022-10-17T05:19:41;95892.56;;;15.03;82.86
21838;BME280;11081;45.946;6.140;2022-10-17T05:22:09;95891.41;;;14.99;83.03
21838;BME280;11081;45.946;6.140;2022-10-17T05:24:38;95897.69;;;14.74;83.87
21838;BME280;11081;45.946;6.140;2022-10-17T05:27:08;95908.78;;;14.64;84.68
21838;BME280;11081;45.946;6.140;2022-10-17T05:29:36;95898.97;;;14.72;84.55
21838;BME280;11081;45.946;6.140;2022-10-17T05:32:13;95896.31;;;14.72;84.72
21838;BME280;11081;45.946;6.140;2022-10-17T05:34:42;95897.94;;;14.73;84.76
21838;BME280;11081;45.946;6.140;2022-10-17T05:37:10;95903.75;;;14.75;84.40
21838;BME280;11081;45.946;6.140;2022-10-17T05:39:41;95904.78;;;14.74;84.74
21838;BME280;11081;45.946;6.140;2022-10-17T05:42:14;95898.63;;;14.80;83.58
21838;BME280;11081;45.946;6.140;2022-10-17T05:44:44;95898.97;;;14.83;83.54
21838;BME280;11081;45.946;6.140;2022-10-17T05:47:14;95899.44;;;14.80;83.50
21838;BME280;11081;45.946;6.140;2022-10-17T05:49:43;95900.47;;;14.79;84.14
21838;BME280;11081;45.946;6.140;2022-10-17T05:52:22;95901.47;;;14.78;83.88
21838;BME280;11081;45.946;6.140;2022-10-17T05:54:58;95909.72;;;14.82;83.77
21838;BME280;11081;45.946;6.140;2022-10-17T05:57:27;95910.84;;;14.74;84.28
21838;BME280;11081;45.946;6.140;2022-10-17T05:59:56;95910.94;;;14.68;84.39
21838;BME280;11081;45.946;6.140;2022-10-17T06:02:25;95912.44;;;14.75;84.22
21838;BME280;11081;45.946;6.140;2022-10-17T06:04:54;95907.97;;;14.76;83.89
21838;BME280;11081;45.946;6.140;2022-10-17T06:07:23;95911.19;;;14.78;84.13
21838;BME280;11081;45.946;6.140;2022-10-17T06:09:51;95915.19;;;14.80;83.42
21838;BME280;11081;45.946;6.140;2022-10-17T06:12:22;95919.66;;;14.80;83.49
21838;BME280;11081;45.946;6.140;2022-10-17T06:14:51;95925.34;;;14.77;83.75
21838;BME280;11081;45.946;6.140;2022-10-17T06:17:19;95925.34;;;14.77;83.86
21838;BME280;11081;45.946;6.140;2022-10-17T06:19:47;95935.66;;;14.90;83.23
21838;BME280;11081;45.946;6.140;2022-10-17T06:22:15;95943.31;;;14.91;82.81
21838;BME280;11081;45.946;6.140;2022-10-17T06:24:45;95945.38;;;14.89;82.93
21838;BME280;11081;45.946;6.140;2022-10-17T06:27:13;95940.22;;;14.83;83.19
21838;BME280;11081;45.946;6.140;2022-10-17T06:29:41;95940.69;;;14.80;83.47
21838;BME280;11081;45.946;6.140;2022-10-17T06:32:11;95950.75;;;14.83;83.95
21838;BME280;11081;45.946;6.140;2022-10-17T06:34:52;95958.06;;;14.81;84.19
21838;BME280;11081;45.946;6.140;2022-10-17T06:37:20;95957.59;;;14.84;83.80
21838;BME280;11081;45.946;6.140;2022-10-17T06:39:48;95968.78;;;14.91;83.96
21838;BME280;11081;45.946;6.140;2022-10-17T06:42:19;95967.88;;;14.97;83.94
21838;BME280;11081;45.946;6.140;2022-10-17T06:45:00;95971.06;;;14.99;83.88
21838;BME280;11081;45.946;6.140;2022-10-17T06:47:53;95978.06;;;15.05;84.03
21838;BME280;11081;45.946;6.140;2022-10-17T06:50:35;95982.97;;;15.13;84.08
21838;BME280;11081;45.946;6.140;2022-10-17T06:53:09;95986.44;;;15.25;83.59
21838;BME280;11081;45.946;6.140;2022-10-17T06:55:56;95982.78;;;15.27;83.50
21838;BME280;11081;45.946;6.140;2022-10-17T06:58:44;95988.03;;;15.27;83.83
21838;BME280;11081;45.946;6.140;2022-10-17T07:01:29;95983.44;;;15.34;84.03
21838;BME280;11081;45.946;6.140;2022-10-17T07:04:00;95985.03;;;15.35;83.65
21838;BME280;11081;45.946;6.140;2022-10-17T07:06:30;95994.06;;;15.39;83.82
21838;BME280;11081;45.946;6.140;2022-10-17T07:09:04;95998.91;;;15.42;83.66
21838;BME280;11081;45.946;6.140;2022-10-17T07:11:35;95998.44;;;15.33;84.35
21838;BME280;11081;45.946;6.140;2022-10-17T07:14:06;96010.22;;;15.31;84.55
21838;BME280;11081;45.946;6.140;2022-10-17T07:16:34;96018.22;;;15.36;84.43
21838;BME280;11081;45.946;6.140;2022-10-17T07:19:18;96023.00;;;15.39;83.98
21838;BME280;11081;45.946;6.140;2022-10-17T07:21:46;96019.25;;;15.46;83.88
21838;BME280;11081;45.946;6.140;2022-10-17T07:24:14;96019.59;;;15.50;84.10
21838;BME280;11081;45.946;6.140;2022-10-17T07:26:51;96032.38;;;15.58;83.76
21838;BME280;11081;45.946;6.140;2022-10-17T07:29:19;96025.78;;;15.67;83.38
21838;BME280;11081;45.946;6.140;2022-10-17T07:31:59;96020.72;;;15.77;83.04
21838;BME280;11081;45.946;6.140;2022-10-17T07:34:32;96034.69;;;15.90;82.98
21838;BME280;11081;45.946;6.140;2022-10-17T07:37:00;96033.75;;;15.96;82.50
21838;BME280;11081;45.946;6.140;2022-10-17T07:39:28;96041.75;;;16.01;82.82
21838;BME280;11081;45.946;6.140;2022-10-17T07:41:57;96041.31;;;16.04;82.91
21838;BME280;11081;45.946;6.140;2022-10-17T07:44:25;96049.88;;;15.99;83.61
21838;BME280;11081;45.946;6.140;2022-10-17T07:46:53;96052.88;;;15.91;84.47
21838;BME280;11081;45.946;6.140;2022-10-17T07:49:21;96052.09;;;15.91;85.05
21838;BME280;11081;45.946;6.140;2022-10-17T07:51:51;96060.56;;;15.93;85.25
21838;BME280;11081;45.946;6.140;2022-10-17T07:54:19;96052.75;;;15.98;84.93
21838;BME280;11081;45.946;6.140;2022-10-17T07:56:47;96063.75;;;16.06;84.58
21838;BME280;11081;45.946;6.140;2022-10-17T07:59:16;96061.78;;;16.13;84.21
21838;BME280;11081;45.946;6.140;2022-10-17T08:01:44;96063.59;;;16.25;84.43
21838;BME280;11081;45.946;6.140;2022-10-17T08:04:12;96063.47;;;16.31;84.04
21838;BME280;11081;45.946;6.140;2022-10-17T08:06:42;96068.81;;;16.36;83.90
21838;BME280;11081;45.946;6.140;2022-10-17T08:09:12;96062.50;;;16.37;83.42
21838;BME280;11081;45.946;6.140;2022-10-17T08:11:40;96063.06;;;16.39;82.13
21838;BME280;11081;45.946;6.140;2022-10-17T08:14:10;96061.56;;;16.43;80.95
21838;BME280;11081;45.946;6.140;2022-10-17T08:16:38;96060.66;;;16.50;80.71
21838;BME280;11081;45.946;6.140;2022-10-17T08:19:06;96053.97;;;16.59;81.37
21838;BME280;11081;45.946;6.140;2022-10-17T08:21:39;96062.34;;;16.67;80.88
21838;BME280;11081;45.946;6.140;2022-10-17T08:24:09;96064.25;;;16.72;81.39
21838;BME280;11081;45.946;6.140;2022-10-17T08:26:38;96066.97;;;16.77;81.43
21838;BME280;11081;45.946;6.140;2022-10-17T08:29:11;96063.31;;;16.78;81.82
21838;BME280;11081;45.946;6.140;2022-10-17T08:31:40;96070.34;;;16.72;84.36
21838;BME280;11081;45.946;6.140;2022-10-17T08:34:13;96069.31;;;16.62;85.05
21838;BME280;11081;45.946;6.140;2022-10-17T08:36:42;96076.88;;;16.70;83.97
21838;BME280;11081;45.946;6.140;2022-10-17T08:39:10;96069.38;;;16.79;84.35
21838;BME280;11081;45.946;6.140;2022-10-17T08:41:58;96068.91;;;16.82;83.73
21838;BME280;11081;45.946;6.140;2022-10-17T08:44:38;96087.13;;;16.83;83.92
21838;BME280;11081;45.946;6.140;2022-10-17T08:47:11;96089.19;;;16.81;84.26
21838;BME280;11081;45.946;6.140;2022-10-17T08:49:44;96078.84;;;16.91;84.14
21838;BME280;11081;45.946;6.140;2022-10-17T08:52:21;96087.47;;;17.03;82.93
21838;BME280;11081;45.946;6.140;2022-10-17T08:54:52;96080.31;;;17.16;81.85
21838;BME280;11081;45.946;6.140;2022-10-17T08:57:22;96078.97;;;17.30;80.21
21838;BME280;11081;45.946;6.140;2022-10-17T08:59:52;96078.09;;;17.41;78.63
21838;BME280;11081;45.946;6.140;2022-10-17T09:02:42;96072.97;;;17.51;76.50
21838;BME280;11081;45.946;6.140;2022-10-17T09:05:24;96068.31;;;17.58;75.81
21838;BME280;11081;45.946;6.140;2022-10-17T09:08:13;96079.06;;;17.68;73.99
21838;BME280;11081;45.946;6.140;2022-10-17T09:10:53;96060.66;;;17.74;73.95
21838;BME280;11081;45.946;6.140;2022-10-17T09:13:31;96067.06;;;17.78;73.88
21838;BME280;11081;45.946;6.140;2022-10-17T09:16:23;96063.97;;;17.86;73.79
21838;BME280;11081;45.946;6.140;2022-10-17T09:19:00;96052.94;;;17.89;73.40
21838;BME280;11081;45.946;6.140;2022-10-17T09:21:38;96057.16;;;17.90;72.95
21838;BME280;11081;45.946;6.140;2022-10-17T09:24:13;96050.38;;;17.94;71.95
21838;BME280;11081;45.946;6.140;2022-10-17T09:26:44;96054.19;;;18.03;71.73
21838;BME280;11081;45.946;6.140;2022-10-17T09:29:21;96046.31;;;18.08;69.21
21838;BME280;11081;45.946;6.140;2022-10-17T09:32:00;96050.50;;;18.04;69.52
21838;BME280;11081;45.946;6.140;2022-10-17T09:34:31;96045.41;;;17.97;70.34
21838;BME280;11081;45.946;6.140;2022-10-17T09:37:00;96050.38;;;17.94;70.61
21838;BME280;11081;45.946;6.140;2022-10-17T09:39:29;96050.88;;;17.91;71.23
21838;BME280;11081;45.946;6.140;2022-10-17T09:41:58;96052.38;;;17.87;71.80
21838;BME280;11081;45.946;6.140;2022-10-17T09:44:31;96061.28;;;17.81;71.67
21838;BME280;11081;45.946;6.140;2022-10-17T09:47:07;96072.16;;;17.84;71.74
21838;BME280;11081;45.946;6.140;2022-10-17T09:49:41;96065.75;;;17.80;72.28
21838;BME280;11081;45.946;6.140;2022-10-17T09:52:13;96077.63;;;17.78;71.91
21838;BME280;11081;45.946;6.140;2022-10-17T09:54:44;96074.53;;;17.86;72.30
21838;BME280;11081;45.946;6.140;2022-10-17T09:57:14;96077.91;;;17.98;71.78
21838;BME280;11081;45.946;6.140;2022-10-17T09:59:46;96080.09;;;18.06;70.45
21838;BME280;11081;45.946;6.140;2022-10-17T10:02:20;96079.75;;;18.19;70.34
21838;BME280;11081;45.946;6.140;2022-10-17T10:05:00;96084.06;;;18.25;69.00
21838;BME280;11081;45.946;6.140;2022-10-17T10:07:32;96078.03;;;18.30;69.70
21838;BME280;11081;45.946;6.140;2022-10-17T10:10:03;96083.06;;;18.32;69.81
21838;BME280;11081;45.946;6.140;2022-10-17T10:12:35;96080.50;;;18.37;69.82
21838;BME280;11081;45.946;6.140;2022-10-17T10:15:34;96086.41;;;18.44;68.64
21838;BME280;11081;45.946;6.140;2022-10-17T10:18:27;96081.63;;;18.41;67.69
21838;BME280;11081;45.946;6.140;2022-10-17T10:21:05;96079.03;;;18.46;68.69
21838;BME280;11081;45.946;6.140;2022-10-17T10:23:34;96091.19;;;18.47;68.03
21838;BME280;11081;45.946;6.140;2022-10-17T10:26:17;96085.41;;;18.50;67.04
21838;BME280;11081;45.946;6.140;2022-10-17T10:28:58;96089.84;;;18.66;66.99
21838;BME280;11081;45.946;6.140;2022-10-17T10:31:31;96083.09;;;18.75;66.00
21838;BME280;11081;45.946;6.140;2022-10-17T10:34:02;96090.56;;;18.83;64.97
21838;BME280;11081;45.946;6.140;2022-10-17T10:36:45;96089.56;;;18.89;64.39
21838;BME280;11081;45.946;6.140;2022-10-17T10:39:33;96093.88;;;18.96;63.52
21838;BME280;11081;45.946;6.140;2022-10-17T10:42:04;96096.88;;;19.04;64.84
21838;BME280;11081;45.946;6.140;2022-10-17T10:44:35;96096.16;;;19.14;63.82
21838;BME280;11081;45.946;6.140;2022-10-17T10:47:19;96095.19;;;19.20;63.07
21838;BME280;11081;45.946;6.140;2022-10-17T10:49:50;96095.25;;;19.30;63.54
21838;BME280;11081;45.946;6.140;2022-10-17T10:52:28;96091.03;;;19.34;63.85
21838;BME280;11081;45.946;6.140;2022-10-17T10:55:02;96089.25;;;19.40;64.19
21838;BME280;11081;45.946;6.140;2022-10-17T10:57:33;96091.13;;;19.44;64.32
21838;BME280;11081;45.946;6.140;2022-10-17T11:00:08;96090.13;;;19.50;64.10
21838;BME280;11081;45.946;6.140;2022-10-17T11:02:48;96087.84;;;19.59;64.08
21838;BME280;11081;45.946;6.140;2022-10-17T11:05:33;96086.03;;;19.65;65.05
21838;BME280;11081;45.946;6.140;2022-10-17T11:08:07;96085.00;;;19.71;63.79
21838;BME280;11081;45.946;6.140;2022-10-17T11:10:42;96085.56;;;19.78;63.70
21838;BME280;11081;45.946;6.140;2022-10-17T11:13:15;96083.50;;;19.80;63.83
21838;BME280;11081;45.946;6.140;2022-10-17T11:15:46;96089.06;;;19.84;63.76
21838;BME280;11081;45.946;6.140;2022-10-17T11:18:21;96088.00;;;19.79;63.57
21838;BME280;11081;45.946;6.140;2022-10-17T11:20:53;96079.78;;;19.81;63.62
21838;BME280;11081;45.946;6.140;2022-10-17T11:23:29;96079.84;;;19.91;63.38
21838;BME280;11081;45.946;6.140;2022-10-17T11:26:04;96078.78;;;19.97;62.94
21838;BME280;11081;45.946;6.140;2022-10-17T11:28:33;96076.91;;;19.93;63.91
21838;BME280;11081;45.946;6.140;2022-10-17T11:31:04;96078.78;;;19.97;64.31
21838;BME280;11081;45.946;6.140;2022-10-17T11:33:43;96081.44;;;19.92;61.46
21838;BME280;11081;45.946;6.140;2022-10-17T11:36:14;96076.19;;;20.02;63.27
21838;BME280;11081;45.946;6.140;2022-10-17T11:38:46;96075.44;;;20.12;64.15
21838;BME280;11081;45.946;6.140;2022-10-17T11:41:20;96071.50;;;20.20;64.88
21838;BME280;11081;45.946;6.140;2022-10-17T11:43:52;96065.13;;;20.16;62.65
21838;BME280;11081;45.946;6.140;2022-10-17T11:46:23;96054.50;;;20.16;62.12
21838;BME280;11081;45.946;6.140;2022-10-17T11:49:02;96062.53;;;20.31;62.11
21838;BME280;11081;45.946;6.140;2022-10-17T11:51:39;96051.50;;;20.44;61.92
21838;BME280;11081;45.946;6.140;2022-10-17T11:54:32;96042.50;;;20.55;61.96
21838;BME280;11081;45.946;6.140;2022-10-17T11:57:09;96041.44;;;20.61;61.39
21838;BME280;11081;45.946;6.140;2022-10-17T11:59:56;96040.41;;;20.67;61.45
21838;BME280;11081;45.946;6.140;2022-10-17T12:02:34;96032.94;;;20.59;62.95
21838;BME280;11081;45.946;6.140;2022-10-17T12:05:18;96030.59;;;20.68;61.63
21838;BME280;11081;45.946;6.140;2022-10-17T12:07:53;96024.50;;;20.73;60.68
21838;BME280;11081;45.946;6.140;2022-10-17T12:10:32;96023.97;;;20.81;60.39
21838;BME280;11081;45.946;6.140;2022-10-17T12:16:37;96016.84;;;20.86;58.73
21838;BME280;11081;45.946;6.140;2022-10-17T12:19:22;96013.88;;;20.78;58.57
21838;BME280;11081;45.946;6.140;2022-10-17T12:21:57;96022.38;;;20.80;58.07
21838;BME280;11081;45.946;6.140;2022-10-17T12:24:32;96016.03;;;20.86;58.85
21838;BME280;11081;45.946;6.140;2022-10-17T12:27:29;96019.75;;;20.85;60.22
21838;BME280;11081;45.946;6.140;2022-10-17T12:29:59;96019.22;;;20.98;60.62
21838;BME280;11081;45.946;6.140;2022-10-17T12:32:28;96016.59;;;21.03;60.53
21838;BME280;11081;45.946;6.140;2022-10-17T12:35:20;96013.66;;;21.05;59.57
21838;BME280;11081;45.946;6.140;2022-10-17T12:38:17;96001.16;;;21.15;61.24
21838;BME280;11081;45.946;6.140;2022-10-17T12:40:53;95997.97;;;21.18;59.82
21838;BME280;11081;45.946;6.140;2022-10-17T12:46:45;96000.63;;;21.23;53.91
21838;BME280;11081;45.946;6.140;2022-10-17T12:49:39;95993.25;;;21.25;58.28
21838;BME280;11081;45.946;6.140;2022-10-17T12:55:11;95991.63;;;21.45;56.51
21838;BME280;11081;45.946;6.140;2022-10-17T12:57:46;95995.31;;;21.44;56.44
21838;BME280;11081;45.946;6.140;2022-10-17T13:00:19;96003.31;;;21.39;56.92
21838;BME280;11081;45.946;6.140;2022-10-17T13:02:52;95994.81;;;21.47;58.02
21838;BME280;11081;45.946;6.140;2022-10-17T13:05:26;96009.69;;;21.53;57.12
21838;BME280;11081;45.946;6.140;2022-10-17T13:07:56;95999.03;;;21.58;57.67
21838;BME280;11081;45.946;6.140;2022-10-17T13:10:30;96006.97;;;21.73;57.46
21838;BME280;11081;45.946;6.140;2022-10-17T13:13:05;96008.00;;;21.82;57.09
21838;BME280;11081;45.946;6.140;2022-10-17T13:15:36;95997.84;;;22.00;56.96
21838;BME280;11081;45.946;6.140;2022-10-17T13:18:04;95996.78;;;22.06;57.09
21838;BME280;11081;45.946;6.140;2022-10-17T13:20:33;95994.59;;;22.23;56.20
21838;BME280;11081;45.946;6.140;2022-10-17T13:23:01;95993.25;;;22.26;57.03
21838;BME280;11081;45.946;6.140;2022-10-17T13:25:30;95989.78;;;22.25;57.16
21838;BME280;11081;45.946;6.140;2022-10-17T13:28:11;95986.59;;;22.33;57.56
21838;BME280;11081;45.946;6.140;2022-10-17T13:30:45;95993.97;;;22.41;55.75
21838;BME280;11081;45.946;6.140;2022-10-17T13:33:28;95997.16;;;22.43;53.84
21838;BME280;11081;45.946;6.140;2022-10-17T13:35:57;95991.78;;;22.54;55.83
21838;BME280;11081;45.946;6.140;2022-10-17T13:38:29;95991.78;;;22.54;54.76
21838;BME280;11081;45.946;6.140;2022-10-17T13:41:10;95985.44;;;22.49;53.82
21838;BME280;11081;45.946;6.140;2022-10-17T13:44:01;95991.31;;;22.41;55.47
21838;BME280;11081;45.946;6.140;2022-10-17T13:46:32;95987.06;;;22.40;56.09